sensor_id;sensor_type;location;lat;lon;timestamp;temperature;humidity
52867;DHT22;38739;53.324;6.862;2023-01-19T00:01:23;2.70;99.90
52867;DHT22;38739;53.324;6.862;2023-01-19T00:03:49;2.70;99.90
52867;DHT22;38739;53.324;6.862;2023-01-19T00:06:15;2.70;99.90
52867;DHT22;38739;53.324;6.862;2023-01-19T00:08:41;2.70;99.90
52867;DHT22;38739;53.324;6.862;2023-01-19T00:11:10;2.70;99.90
52867;DHT22;38739;53.324;6.862;2023-01-19T00:13:37;2.70;99.90
52867;DHT22;38739;53.324;6.862;2023-01-19T00:16:03;2.70;99.90
52867;DHT22;38739;53.324;6.862;2023-01-19T00:18:29;2.70;99.90
52867;DHT22;38739;53.324;6.862;2023-01-19T00:20:54;2.70;99.90
52867;DHT22;38739;53.324;6.862;2023-01-19T00:23:20;2.60;99.90
52867;DHT22;38739;53.324;6.862;2023-01-19T00:25:46;2.60;99.90
52867;DHT22;38739;53.324;6.862;2023-01-19T00:28:15;2.50;99.90
52867;DHT22;38739;53.324;6.862;2023-01-19T00:30:41;2.50;99.90
52867;DHT22;38739;53.324;6.862;2023-01-19T00:33:08;2.50;99.90
52867;DHT22;38739;53.324;6.862;2023-01-19T00:35:34;2.50;99.90
52867;DHT22;38739;53.324;6.862;2023-01-19T00:38:01;2.40;99.90
52867;DHT22;38739;53.324;6.862;2023-01-19T00:40:27;2.40;99.90
52867;DHT22;38739;53.324;6.862;2023-01-19T00:42:53;2.40;99.90
52867;DHT22;38739;53.324;6.862;2023-01-19T00:45:22;2.30;99.90
52867;DHT22;38739;53.324;6.862;2023-01-19T00:47:49;2.30;99.90
52867;DHT22;38739;53.324;6.862;2023-01-19T00:50:19;2.40;99.90
52867;DHT22;38739;53.324;6.862;2023-01-19T00:52:45;2.40;99.90
52867;DHT22;38739;53.324;6.862;2023-01-19T00:55:12;2.40;99.90
52867;DHT22;38739;53.324;6.862;2023-01-19T00:57:39;2.40;99.90
52867;DHT22;38739;53.324;6.862;2023-01-19T01:00:07;2.40;99.90
52867;DHT22;38739;53.324;6.862;2023-01-19T01:02:34;2.30;99.90
52867;DHT22;38739;53.324;6.862;2023-01-19T01:04:59;2.30;99.90
52867;DHT22;38739;53.324;6.862;2023-01-19T01:07:27;2.30;99.90
52867;DHT22;38739;53.324;6.862;2023-01-19T01:09:53;2.30;99.90
52867;DHT22;38739;53.324;6.862;2023-01-19T01:12:21;2.30;99.90
52867;DHT22;38739;53.324;6.862;2023-01-19T01:14:47;2.30;99.90
52867;DHT22;38739;53.324;6.862;2023-01-19T01:17:13;2.30;99.90
52867;DHT22;38739;53.324;6.862;2023-01-19T01:19:42;2.30;99.90
52867;DHT22;38739;53.324;6.862;2023-01-19T01:22:08;2.20;99.90
52867;DHT22;38739;53.324;6.862;2023-01-19T01:24:35;2.20;99.90
52867;DHT22;38739;53.324;6.862;2023-01-19T01:27:00;2.30;99.90
52867;DHT22;38739;53.324;6.862;2023-01-19T01:29:26;2.20;99.90
52867;DHT22;38739;53.324;6.862;2023-01-19T01:31:52;2.30;99.90
52867;DHT22;38739;53.324;6.862;2023-01-19T01:34:17;2.40;99.90
52867;DHT22;38739;53.324;6.862;2023-01-19T01:36:43;2.40;99.90
52867;DHT22;38739;53.324;6.862;2023-01-19T01:39:09;2.40;99.90
52867;DHT22;38739;53.324;6.862;2023-01-19T01:41:35;2.50;99.90
52867;DHT22;38739;53.324;6.862;2023-01-19T01:44:01;2.50;99.90
52867;DHT22;38739;53.324;6.862;2023-01-19T01:46:30;2.50;99.90
52867;DHT22;38739;53.324;6.862;2023-01-19T01:49:16;2.60;99.90
52867;DHT22;38739;53.324;6.862;2023-01-19T01:51:48;2.60;99.90
52867;DHT22;38739;53.324;6.862;2023-01-19T01:54:19;2.70;99.90
52867;DHT22;38739;53.324;6.862;2023-01-19T01:56:53;2.70;99.90
52867;DHT22;38739;53.324;6.862;2023-01-19T01:59:26;2.70;99.90
52867;DHT22;38739;53.324;6.862;2023-01-19T02:02:03;2.70;99.90
52867;DHT22;38739;53.324;6.862;2023-01-19T02:04:53;2.80;99.90
52867;DHT22;38739;53.324;6.862;2023-01-19T02:10:24;2.80;99.90
52867;DHT22;38739;53.324;6.862;2023-01-19T02:13:09;2.80;99.90
52867;DHT22;38739;53.324;6.862;2023-01-19T02:15:54;2.80;99.90
52867;DHT22;38739;53.324;6.862;2023-01-19T02:18:21;2.80;99.90
52867;DHT22;38739;53.324;6.862;2023-01-19T02:21:20;2.80;99.90
52867;DHT22;38739;53.324;6.862;2023-01-19T02:23:53;2.80;99.90
52867;DHT22;38739;53.324;6.862;2023-01-19T02:26:32;2.80;99.90
52867;DHT22;38739;53.324;6.862;2023-01-19T02:29:20;2.80;99.90
52867;DHT22;38739;53.324;6.862;2023-01-19T02:31:46;2.70;99.90
52867;DHT22;38739;53.324;6.862;2023-01-19T02:34:15;2.70;99.90
52867;DHT22;38739;53.324;6.862;2023-01-19T02:36:48;2.70;99.90
52867;DHT22;38739;53.324;6.862;2023-01-19T02:39:17;2.70;99.90
52867;DHT22;38739;53.324;6.862;2023-01-19T02:41:49;2.70;99.90
52867;DHT22;38739;53.324;6.862;2023-01-19T02:44:15;2.60;99.90
52867;DHT22;38739;53.324;6.862;2023-01-19T02:46:42;2.60;99.90
52867;DHT22;38739;53.324;6.862;2023-01-19T02:49:08;2.60;99.90
52867;DHT22;38739;53.324;6.862;2023-01-19T02:51:34;2.60;99.90
52867;DHT22;38739;53.324;6.862;2023-01-19T03:04:54;2.60;99.90
52867;DHT22;38739;53.324;6.862;2023-01-19T03:10:30;2.60;99.90
52867;DHT22;38739;53.324;6.862;2023-01-19T03:15:49;2.50;99.90
52867;DHT22;38739;53.324;6.862;2023-01-19T03:18:22;2.60;99.90
52867;DHT22;38739;53.324;6.862;2023-01-19T03:20:51;2.60;99.90
52867;DHT22;38739;53.324;6.862;2023-01-19T03:23:21;2.60;99.90
52867;DHT22;38739;53.324;6.862;2023-01-19T03:25:49;2.50;99.90
52867;DHT22;38739;53.324;6.862;2023-01-19T03:28:18;2.50;99.90
52867;DHT22;38739;53.324;6.862;2023-01-19T03:30:49;2.50;99.90
52867;DHT22;38739;53.324;6.862;2023-01-19T03:33:31;2.50;99.90
52867;DHT22;38739;53.324;6.862;2023-01-19T03:36:01;2.50;99.90
52867;DHT22;38739;53.324;6.862;2023-01-19T03:38:34;2.50;99.90
52867;DHT22;38739;53.324;6.862;2023-01-19T03:41:03;2.40;99.90
52867;DHT22;38739;53.324;6.862;2023-01-19T03:43:31;2.40;99.90
52867;DHT22;38739;53.324;6.862;2023-01-19T03:45:59;2.40;99.90
52867;DHT22;38739;53.324;6.862;2023-01-19T03:48:25;2.40;99.90
52867;DHT22;38739;53.324;6.862;2023-01-19T03:50:51;2.30;99.90
52867;DHT22;38739;53.324;6.862;2023-01-19T03:53:19;2.30;99.90
52867;DHT22;38739;53.324;6.862;2023-01-19T03:55:46;2.30;99.90
52867;DHT22;38739;53.324;6.862;2023-01-19T03:58:12;2.20;99.90
52867;DHT22;38739;53.324;6.862;2023-01-19T04:00:38;2.20;99.90
52867;DHT22;38739;53.324;6.862;2023-01-19T04:03:05;2.20;99.90
52867;DHT22;38739;53.324;6.862;2023-01-19T04:05:32;2.20;99.90
52867;DHT22;38739;53.324;6.862;2023-01-19T04:07:57;2.20;99.90
52867;DHT22;38739;53.324;6.862;2023-01-19T04:10:23;2.20;99.90
52867;DHT22;38739;53.324;6.862;2023-01-19T04:12:56;2.20;99.90
52867;DHT22;38739;53.324;6.862;2023-01-19T04:15:22;2.20;99.90
52867;DHT22;38739;53.324;6.862;2023-01-19T04:17:48;2.20;99.90
52867;DHT22;38739;53.324;6.862;2023-01-19T04:20:13;2.20;99.90
52867;DHT22;38739;53.324;6.862;2023-01-19T04:22:39;2.20;99.90
52867;DHT22;38739;53.324;6.862;2023-01-19T04:25:06;2.20;99.90
52867;DHT22;38739;53.324;6.862;2023-01-19T04:27:32;2.20;99.90
52867;DHT22;38739;53.324;6.862;2023-01-19T04:29:57;2.20;99.90
52867;DHT22;38739;53.324;6.862;2023-01-19T04:32:24;2.20;99.90
52867;DHT22;38739;53.324;6.862;2023-01-19T04:34:50;2.10;99.90
52867;DHT22;38739;53.324;6.862;2023-01-19T04:37:16;2.10;99.90
52867;DHT22;38739;53.324;6.862;2023-01-19T04:39:42;2.10;99.90
52867;DHT22;38739;53.324;6.862;2023-01-19T04:42:07;2.10;99.90
52867;DHT22;38739;53.324;6.862;2023-01-19T04:44:33;2.10;99.90
52867;DHT22;38739;53.324;6.862;2023-01-19T04:46:59;2.10;99.90
52867;DHT22;38739;53.324;6.862;2023-01-19T04:49:25;2.00;99.90
52867;DHT22;38739;53.324;6.862;2023-01-19T04:51:52;2.00;99.90
52867;DHT22;38739;53.324;6.862;2023-01-19T04:54:18;2.10;99.90
52867;DHT22;38739;53.324;6.862;2023-01-19T04:56:44;2.00;99.90
52867;DHT22;38739;53.324;6.862;2023-01-19T04:59:09;2.00;99.90
52867;DHT22;38739;53.324;6.862;2023-01-19T05:01:35;1.90;99.90
52867;DHT22;38739;53.324;6.862;2023-01-19T05:04:01;2.00;99.90
52867;DHT22;38739;53.324;6.862;2023-01-19T05:06:29;1.90;99.90
52867;DHT22;38739;53.324;6.862;2023-01-19T05:08:55;1.90;99.90
52867;DHT22;38739;53.324;6.862;2023-01-19T05:11:20;1.90;99.90
52867;DHT22;38739;53.324;6.862;2023-01-19T05:13:46;1.90;99.90
52867;DHT22;38739;53.324;6.862;2023-01-19T05:16:12;1.80;99.90
52867;DHT22;38739;53.324;6.862;2023-01-19T05:18:38;1.90;99.90
52867;DHT22;38739;53.324;6.862;2023-01-19T05:21:05;1.80;99.90
52867;DHT22;38739;53.324;6.862;2023-01-19T05:23:30;1.80;99.90
52867;DHT22;38739;53.324;6.862;2023-01-19T05:25:57;1.80;99.90
52867;DHT22;38739;53.324;6.862;2023-01-19T05:28:29;1.80;99.90
52867;DHT22;38739;53.324;6.862;2023-01-19T05:30:55;1.80;99.90
52867;DHT22;38739;53.324;6.862;2023-01-19T05:33:21;1.80;99.90
52867;DHT22;38739;53.324;6.862;2023-01-19T05:35:51;1.80;99.90
52867;DHT22;38739;53.324;6.862;2023-01-19T05:38:18;1.80;99.90
52867;DHT22;38739;53.324;6.862;2023-01-19T05:40:44;1.80;99.90
52867;DHT22;38739;53.324;6.862;2023-01-19T05:43:09;1.80;99.90
52867;DHT22;38739;53.324;6.862;2023-01-19T05:45:35;1.80;99.90
52867;DHT22;38739;53.324;6.862;2023-01-19T05:48:03;1.70;99.90
52867;DHT22;38739;53.324;6.862;2023-01-19T05:50:30;1.70;99.90
52867;DHT22;38739;53.324;6.862;2023-01-19T05:52:55;1.70;99.90
52867;DHT22;38739;53.324;6.862;2023-01-19T05:55:22;1.70;99.90
52867;DHT22;38739;53.324;6.862;2023-01-19T05:57:47;1.80;99.90
52867;DHT22;38739;53.324;6.862;2023-01-19T06:00:13;1.70;99.90
52867;DHT22;38739;53.324;6.862;2023-01-19T06:02:39;1.70;99.90
52867;DHT22;38739;53.324;6.862;2023-01-19T06:05:05;1.80;99.90
52867;DHT22;38739;53.324;6.862;2023-01-19T06:07:34;1.70;99.90
52867;DHT22;38739;53.324;6.862;2023-01-19T06:10:00;1.80;99.90
52867;DHT22;38739;53.324;6.862;2023-01-19T06:12:25;1.80;99.90
52867;DHT22;38739;53.324;6.862;2023-01-19T06:14:51;1.80;99.90
52867;DHT22;38739;53.324;6.862;2023-01-19T06:17:17;1.80;99.90
52867;DHT22;38739;53.324;6.862;2023-01-19T06:19:43;1.80;99.90
52867;DHT22;38739;53.324;6.862;2023-01-19T06:22:09;1.80;99.90
52867;DHT22;38739;53.324;6.862;2023-01-19T06:24:34;1.80;99.90
52867;DHT22;38739;53.324;6.862;2023-01-19T06:27:00;1.80;99.90
52867;DHT22;38739;53.324;6.862;2023-01-19T06:29:26;1.80;99.90
52867;DHT22;38739;53.324;6.862;2023-01-19T06:31:52;1.90;99.90
52867;DHT22;38739;53.324;6.862;2023-01-19T06:34:18;1.90;99.90
52867;DHT22;38739;53.324;6.862;2023-01-19T06:36:44;2.00;99.90
52867;DHT22;38739;53.324;6.862;2023-01-19T06:39:11;2.00;99.90
52867;DHT22;38739;53.324;6.862;2023-01-19T06:41:37;1.90;99.90
52867;DHT22;38739;53.324;6.862;2023-01-19T06:44:03;2.00;99.90
52867;DHT22;38739;53.324;6.862;2023-01-19T06:46:29;2.00;99.90
52867;DHT22;38739;53.324;6.862;2023-01-19T06:48:55;2.10;99.90
52867;DHT22;38739;53.324;6.862;2023-01-19T06:51:21;2.10;99.90
52867;DHT22;38739;53.324;6.862;2023-01-19T06:53:47;2.10;99.90
52867;DHT22;38739;53.324;6.862;2023-01-19T06:56:13;2.00;99.90
52867;DHT22;38739;53.324;6.862;2023-01-19T06:58:39;2.10;99.90
52867;DHT22;38739;53.324;6.862;2023-01-19T07:01:06;2.10;99.90
52867;DHT22;38739;53.324;6.862;2023-01-19T07:03:33;2.10;99.90
52867;DHT22;38739;53.324;6.862;2023-01-19T07:06:00;2.10;99.90
52867;DHT22;38739;53.324;6.862;2023-01-19T07:08:31;2.10;99.90
52867;DHT22;38739;53.324;6.862;2023-01-19T07:11:05;2.10;99.90
52867;DHT22;38739;53.324;6.862;2023-01-19T07:13:32;2.10;99.90
52867;DHT22;38739;53.324;6.862;2023-01-19T07:16:06;2.10;99.90
52867;DHT22;38739;53.324;6.862;2023-01-19T07:18:32;2.30;99.90
52867;DHT22;38739;53.324;6.862;2023-01-19T07:20:58;2.20;99.90
52867;DHT22;38739;53.324;6.862;2023-01-19T07:23:24;2.30;99.90
52867;DHT22;38739;53.324;6.862;2023-01-19T07:25:50;2.30;99.90
52867;DHT22;38739;53.324;6.862;2023-01-19T07:28:15;2.40;99.90
52867;DHT22;38739;53.324;6.862;2023-01-19T07:30:42;2.40;99.90
52867;DHT22;38739;53.324;6.862;2023-01-19T07:33:08;2.40;99.90
52867;DHT22;38739;53.324;6.862;2023-01-19T07:35:34;2.50;99.90
52867;DHT22;38739;53.324;6.862;2023-01-19T07:37:59;2.50;99.90
52867;DHT22;38739;53.324;6.862;2023-01-19T07:40:25;2.50;99.90
52867;DHT22;38739;53.324;6.862;2023-01-19T07:42:51;2.50;99.90
52867;DHT22;38739;53.324;6.862;2023-01-19T07:45:18;2.50;99.90
52867;DHT22;38739;53.324;6.862;2023-01-19T07:47:45;2.50;99.90
52867;DHT22;38739;53.324;6.862;2023-01-19T07:50:14;2.50;99.90
52867;DHT22;38739;53.324;6.862;2023-01-19T07:52:40;2.60;99.90
52867;DHT22;38739;53.324;6.862;2023-01-19T07:55:06;2.70;99.90
52867;DHT22;38739;53.324;6.862;2023-01-19T07:57:32;2.80;99.90
52867;DHT22;38739;53.324;6.862;2023-01-19T07:59:58;2.80;99.90
52867;DHT22;38739;53.324;6.862;2023-01-19T08:02:23;2.80;99.90
52867;DHT22;38739;53.324;6.862;2023-01-19T08:04:49;2.90;99.90
52867;DHT22;38739;53.324;6.862;2023-01-19T08:07:16;2.90;99.90
52867;DHT22;38739;53.324;6.862;2023-01-19T08:09:42;2.90;99.90
52867;DHT22;38739;53.324;6.862;2023-01-19T08:12:08;3.00;99.90
52867;DHT22;38739;53.324;6.862;2023-01-19T08:14:33;3.00;99.90
52867;DHT22;38739;53.324;6.862;2023-01-19T08:17:00;3.00;99.90
52867;DHT22;38739;53.324;6.862;2023-01-19T08:19:26;3.00;99.90
52867;DHT22;38739;53.324;6.862;2023-01-19T08:21:52;3.10;99.90
52867;DHT22;38739;53.324;6.862;2023-01-19T08:24:20;3.10;99.90
52867;DHT22;38739;53.324;6.862;2023-01-19T08:26:47;3.10;99.90
52867;DHT22;38739;53.324;6.862;2023-01-19T08:29:13;3.20;99.90
52867;DHT22;38739;53.324;6.862;2023-01-19T08:31:39;3.20;99.90
52867;DHT22;38739;53.324;6.862;2023-01-19T08:34:05;3.20;99.90
52867;DHT22;38739;53.324;6.862;2023-01-19T08:36:30;3.20;99.90
52867;DHT22;38739;53.324;6.862;2023-01-19T08:38:56;3.20;99.90
52867;DHT22;38739;53.324;6.862;2023-01-19T08:41:22;3.20;99.90
52867;DHT22;38739;53.324;6.862;2023-01-19T08:43:48;3.10;99.90
52867;DHT22;38739;53.324;6.862;2023-01-19T08:46:14;3.10;99.90
52867;DHT22;38739;53.324;6.862;2023-01-19T08:48:46;3.10;99.90
52867;DHT22;38739;53.324;6.862;2023-01-19T08:51:15;3.10;99.90
52867;DHT22;38739;53.324;6.862;2023-01-19T08:53:42;3.10;99.90
52867;DHT22;38739;53.324;6.862;2023-01-19T08:56:09;3.10;99.90
52867;DHT22;38739;53.324;6.862;2023-01-19T08:58:42;3.00;99.90
52867;DHT22;38739;53.324;6.862;2023-01-19T09:01:09;3.00;99.90
52867;DHT22;38739;53.324;6.862;2023-01-19T09:03:35;3.00;99.90
52867;DHT22;38739;53.324;6.862;2023-01-19T09:06:04;2.90;99.90
52867;DHT22;38739;53.324;6.862;2023-01-19T09:08:30;2.90;99.90
52867;DHT22;38739;53.324;6.862;2023-01-19T09:10:56;2.90;99.90
52867;DHT22;38739;53.324;6.862;2023-01-19T09:13:21;2.90;99.90
52867;DHT22;38739;53.324;6.862;2023-01-19T09:15:47;3.00;99.90
52867;DHT22;38739;53.324;6.862;2023-01-19T09:18:16;3.00;99.90
52867;DHT22;38739;53.324;6.862;2023-01-19T09:20:44;3.10;99.90
52867;DHT22;38739;53.324;6.862;2023-01-19T09:23:11;3.10;99.90
52867;DHT22;38739;53.324;6.862;2023-01-19T09:25:38;3.20;99.90
52867;DHT22;38739;53.324;6.862;2023-01-19T09:28:09;3.30;99.90
52867;DHT22;38739;53.324;6.862;2023-01-19T09:30:39;3.30;99.90
52867;DHT22;38739;53.324;6.862;2023-01-19T09:33:10;3.40;99.90
52867;DHT22;38739;53.324;6.862;2023-01-19T09:35:39;3.50;99.90
52867;DHT22;38739;53.324;6.862;2023-01-19T09:38:07;3.60;99.90
52867;DHT22;38739;53.324;6.862;2023-01-19T09:40:55;3.70;99.90
52867;DHT22;38739;53.324;6.862;2023-01-19T09:46:14;3.90;99.90
52867;DHT22;38739;53.324;6.862;2023-01-19T09:48:50;4.00;99.90
52867;DHT22;38739;53.324;6.862;2023-01-19T09:51:28;4.00;99.90
52867;DHT22;38739;53.324;6.862;2023-01-19T09:54:16;4.00;99.90
52867;DHT22;38739;53.324;6.862;2023-01-19T09:56:44;4.00;99.90
52867;DHT22;38739;53.324;6.862;2023-01-19T10:01:54;4.00;99.90
52867;DHT22;38739;53.324;6.862;2023-01-19T10:12:38;4.00;99.90
52867;DHT22;38739;53.324;6.862;2023-01-19T10:20:27;4.20;99.90
52867;DHT22;38739;53.324;6.862;2023-01-19T10:22:55;4.40;99.90
52867;DHT22;38739;53.324;6.862;2023-01-19T10:25:23;4.60;99.90
52867;DHT22;38739;53.324;6.862;2023-01-19T10:27:49;4.70;99.90
52867;DHT22;38739;53.324;6.862;2023-01-19T10:30:21;4.90;99.90
52867;DHT22;38739;53.324;6.862;2023-01-19T10:32:48;5.10;99.90
52867;DHT22;38739;53.324;6.862;2023-01-19T10:35:17;5.20;99.90
52867;DHT22;38739;53.324;6.862;2023-01-19T10:37:48;5.40;99.90
52867;DHT22;38739;53.324;6.862;2023-01-19T10:40:36;5.50;99.90
52867;DHT22;38739;53.324;6.862;2023-01-19T10:46:29;5.80;99.90
52867;DHT22;38739;53.324;6.862;2023-01-19T10:48:56;5.90;99.90
52867;DHT22;38739;53.324;6.862;2023-01-19T10:51:22;6.00;99.90
52867;DHT22;38739;53.324;6.862;2023-01-19T10:53:57;6.20;99.90
52867;DHT22;38739;53.324;6.862;2023-01-19T10:56:27;6.30;99.90
52867;DHT22;38739;53.324;6.862;2023-01-19T10:58:54;6.40;99.90
52867;DHT22;38739;53.324;6.862;2023-01-19T11:01:24;6.50;99.90
52867;DHT22;38739;53.324;6.862;2023-01-19T11:03:51;6.70;99.90
52867;DHT22;38739;53.324;6.862;2023-01-19T11:06:20;6.80;99.90
52867;DHT22;38739;53.324;6.862;2023-01-19T11:08:48;7.00;99.90
52867;DHT22;38739;53.324;6.862;2023-01-19T11:11:18;7.20;99.90
52867;DHT22;38739;53.324;6.862;2023-01-19T11:13:46;7.40;99.90
52867;DHT22;38739;53.324;6.862;2023-01-19T11:16:28;7.60;99.90
52867;DHT22;38739;53.324;6.862;2023-01-19T11:18:55;7.90;99.90
52867;DHT22;38739;53.324;6.862;2023-01-19T11:21:24;8.10;99.90
52867;DHT22;38739;53.324;6.862;2023-01-19T11:24:01;8.40;99.90
52867;DHT22;38739;53.324;6.862;2023-01-19T11:26:41;8.30;99.90
52867;DHT22;38739;53.324;6.862;2023-01-19T11:29:19;8.00;99.90
52867;DHT22;38739;53.324;6.862;2023-01-19T11:31:46;7.70;99.90
52867;DHT22;38739;53.324;6.862;2023-01-19T11:37:02;7.20;99.90
52867;DHT22;38739;53.324;6.862;2023-01-19T11:39:30;7.00;99.90
52867;DHT22;38739;53.324;6.862;2023-01-19T11:42:00;6.90;99.90
52867;DHT22;38739;53.324;6.862;2023-01-19T11:44:28;6.80;99.90
52867;DHT22;38739;53.324;6.862;2023-01-19T11:46:58;6.70;99.90
52867;DHT22;38739;53.324;6.862;2023-01-19T11:49:43;6.60;99.90
52867;DHT22;38739;53.324;6.862;2023-01-19T11:52:41;6.60;99.90
52867;DHT22;38739;53.324;6.862;2023-01-19T11:57:55;6.40;99.90
52867;DHT22;38739;53.324;6.862;2023-01-19T12:00:37;6.40;99.90
52867;DHT22;38739;53.324;6.862;2023-01-19T12:03:18;6.30;99.90
52867;DHT22;38739;53.324;6.862;2023-01-19T12:05:50;6.30;99.90
52867;DHT22;38739;53.324;6.862;2023-01-19T12:08:24;6.40;99.90
52867;DHT22;38739;53.324;6.862;2023-01-19T12:10:56;6.40;99.90
52867;DHT22;38739;53.324;6.862;2023-01-19T12:13:25;6.40;99.90
52867;DHT22;38739;53.324;6.862;2023-01-19T12:15:58;6.40;99.90
52867;DHT22;38739;53.324;6.862;2023-01-19T12:18:35;6.40;99.90
52867;DHT22;38739;53.324;6.862;2023-01-19T12:21:03;6.30;99.90
52867;DHT22;38739;53.324;6.862;2023-01-19T12:23:38;6.30;99.90
52867;DHT22;38739;53.324;6.862;2023-01-19T12:26:43;6.20;99.90
52867;DHT22;38739;53.324;6.862;2023-01-19T12:29:20;6.10;99.90
52867;DHT22;38739;53.324;6.862;2023-01-19T12:34:43;5.80;99.90
52867;DHT22;38739;53.324;6.862;2023-01-19T12:39:56;5.60;99.90
52867;DHT22;38739;53.324;6.862;2023-01-19T12:42:23;5.60;99.90
52867;DHT22;38739;53.324;6.862;2023-01-19T12:45:15;5.50;99.90
52867;DHT22;38739;53.324;6.862;2023-01-19T12:47:38;5.50;99.90
52867;DHT22;38739;53.324;6.862;2023-01-19T12:50:13;5.50;99.90
52867;DHT22;38739;53.324;6.862;2023-01-19T12:52:47;5.50;99.90
52867;DHT22;38739;53.324;6.862;2023-01-19T12:58:04;5.80;99.90
52867;DHT22;38739;53.324;6.862;2023-01-19T13:00:39;5.80;99.90
52867;DHT22;38739;53.324;6.862;2023-01-19T13:11:14;5.30;99.90
52867;DHT22;38739;53.324;6.862;2023-01-19T13:21:38;5.10;99.90
52867;DHT22;38739;53.324;6.862;2023-01-19T13:24:09;5.00;99.90
52867;DHT22;38739;53.324;6.862;2023-01-19T13:29:29;4.80;99.90
52867;DHT22;38739;53.324;6.862;2023-01-19T13:31:57;4.80;99.90
52867;DHT22;38739;53.324;6.862;2023-01-19T13:34:36;4.70;99.90
52867;DHT22;38739;53.324;6.862;2023-01-19T13:37:03;4.70;99.90
52867;DHT22;38739;53.324;6.862;2023-01-19T13:39:35;4.60;99.90
52867;DHT22;38739;53.324;6.862;2023-01-19T13:42:13;4.60;99.90
52867;DHT22;38739;53.324;6.862;2023-01-19T13:44:44;4.60;99.90
52867;DHT22;38739;53.324;6.862;2023-01-19T13:47:20;4.60;99.90
52867;DHT22;38739;53.324;6.862;2023-01-19T13:49:48;4.60;99.90
52867;DHT22;38739;53.324;6.862;2023-01-19T13:52:28;4.60;99.90
52867;DHT22;38739;53.324;6.862;2023-01-19T13:54:55;4.60;99.90
52867;DHT22;38739;53.324;6.862;2023-01-19T13:57:25;4.50;99.90
52867;DHT22;38739;53.324;6.862;2023-01-19T14:08:21;4.40;99.90
52867;DHT22;38739;53.324;6.862;2023-01-19T14:16:13;4.30;99.90
52867;DHT22;38739;53.324;6.862;2023-01-19T14:18:40;4.30;99.90
52867;DHT22;38739;53.324;6.862;2023-01-19T14:21:14;4.30;99.90
52867;DHT22;38739;53.324;6.862;2023-01-19T14:24:18;4.30;99.90
52867;DHT22;38739;53.324;6.862;2023-01-19T14:26:52;4.30;99.90
52867;DHT22;38739;53.324;6.862;2023-01-19T14:32:11;4.30;99.90
52867;DHT22;38739;53.324;6.862;2023-01-19T14:37:15;4.30;99.90
52867;DHT22;38739;53.324;6.862;2023-01-19T14:42:20;4.10;99.90
52867;DHT22;38739;53.324;6.862;2023-01-19T14:44:49;4.00;99.90
52867;DHT22;38739;53.324;6.862;2023-01-19T14:47:24;3.90;99.90
52867;DHT22;38739;53.324;6.862;2023-01-19T14:49:50;3.90;99.90
52867;DHT22;38739;53.324;6.862;2023-01-19T14:52:28;3.90;99.90
52867;DHT22;38739;53.324;6.862;2023-01-19T14:54:55;3.80;99.90
52867;DHT22;38739;53.324;6.862;2023-01-19T14:57:22;3.80;99.90
52867;DHT22;38739;53.324;6.862;2023-01-19T14:59:48;3.80;99.90
52867;DHT22;38739;53.324;6.862;2023-01-19T15:02:15;3.80;99.90
52867;DHT22;38739;53.324;6.862;2023-01-19T15:04:44;3.70;99.90
52867;DHT22;38739;53.324;6.862;2023-01-19T15:07:17;3.70;99.90
52867;DHT22;38739;53.324;6.862;2023-01-19T15:09:44;3.60;99.90
52867;DHT22;38739;53.324;6.862;2023-01-19T15:12:12;3.60;99.90
52867;DHT22;38739;53.324;6.862;2023-01-19T15:14:39;3.50;99.90
52867;DHT22;38739;53.324;6.862;2023-01-19T15:17:05;3.50;99.90
52867;DHT22;38739;53.324;6.862;2023-01-19T15:19:31;3.40;99.90
52867;DHT22;38739;53.324;6.862;2023-01-19T15:21:56;3.40;99.90
52867;DHT22;38739;53.324;6.862;2023-01-19T15:24:22;3.30;99.90
52867;DHT22;38739;53.324;6.862;2023-01-19T15:26:48;3.30;99.90
52867;DHT22;38739;53.324;6.862;2023-01-19T15:29:21;3.20;99.90
52867;DHT22;38739;53.324;6.862;2023-01-19T15:31:47;3.20;99.90
52867;DHT22;38739;53.324;6.862;2023-01-19T15:34:13;3.10;99.90
52867;DHT22;38739;53.324;6.862;2023-01-19T15:36:39;3.10;99.90
52867;DHT22;38739;53.324;6.862;2023-01-19T15:39:06;3.10;99.90
52867;DHT22;38739;53.324;6.862;2023-01-19T15:41:31;3.00;99.90
52867;DHT22;38739;53.324;6.862;2023-01-19T15:43:57;3.00;99.90
52867;DHT22;38739;53.324;6.862;2023-01-19T15:46:23;3.00;99.90
52867;DHT22;38739;53.324;6.862;2023-01-19T15:48:51;2.90;99.90
52867;DHT22;38739;53.324;6.862;2023-01-19T15:51:19;2.90;99.90
52867;DHT22;38739;53.324;6.862;2023-01-19T15:53:45;2.90;99.90
52867;DHT22;38739;53.324;6.862;2023-01-19T15:56:16;2.80;99.90
52867;DHT22;38739;53.324;6.862;2023-01-19T15:58:42;2.80;99.90
52867;DHT22;38739;53.324;6.862;2023-01-19T16:01:16;2.70;99.90
52867;DHT22;38739;53.324;6.862;2023-01-19T16:03:42;2.70;99.90
52867;DHT22;38739;53.324;6.862;2023-01-19T16:06:08;2.60;99.90
52867;DHT22;38739;53.324;6.862;2023-01-19T16:08:35;2.50;99.90
52867;DHT22;38739;53.324;6.862;2023-01-19T16:11:06;2.50;99.90
52867;DHT22;38739;53.324;6.862;2023-01-19T16:13:33;2.40;99.90
52867;DHT22;38739;53.324;6.862;2023-01-19T16:16:07;2.30;99.90
52867;DHT22;38739;53.324;6.862;2023-01-19T16:18:33;2.30;99.90
52867;DHT22;38739;53.324;6.862;2023-01-19T16:20:59;2.20;99.90
52867;DHT22;38739;53.324;6.862;2023-01-19T16:23:25;2.10;99.90
52867;DHT22;38739;53.324;6.862;2023-01-19T16:25:56;2.10;99.90
52867;DHT22;38739;53.324;6.862;2023-01-19T16:28:22;2.00;99.90
52867;DHT22;38739;53.324;6.862;2023-01-19T16:30:48;2.00;99.90
52867;DHT22;38739;53.324;6.862;2023-01-19T16:33:14;1.90;99.90
52867;DHT22;38739;53.324;6.862;2023-01-19T16:35:40;1.90;99.90
52867;DHT22;38739;53.324;6.862;2023-01-19T16:38:05;1.80;99.90
52867;DHT22;38739;53.324;6.862;2023-01-19T16:40:31;1.70;99.90
52867;DHT22;38739;53.324;6.862;2023-01-19T16:42:57;1.70;99.90
52867;DHT22;38739;53.324;6.862;2023-01-19T16:45:22;1.70;99.90
52867;DHT22;38739;53.324;6.862;2023-01-19T16:47:48;1.60;99.90
52867;DHT22;38739;53.324;6.862;2023-01-19T16:50:17;1.50;99.90
52867;DHT22;38739;53.324;6.862;2023-01-19T16:52:43;1.50;99.90
52867;DHT22;38739;53.324;6.862;2023-01-19T16:55:08;1.50;99.90
52867;DHT22;38739;53.324;6.862;2023-01-19T16:57:38;1.40;99.90
52867;DHT22;38739;53.324;6.862;2023-01-19T17:00:06;1.40;99.90
52867;DHT22;38739;53.324;6.862;2023-01-19T17:02:33;1.40;99.90
52867;DHT22;38739;53.324;6.862;2023-01-19T17:04:59;1.30;99.90
52867;DHT22;38739;53.324;6.862;2023-01-19T17:07:28;1.30;99.90
52867;DHT22;38739;53.324;6.862;2023-01-19T17:09:53;1.30;99.90
52867;DHT22;38739;53.324;6.862;2023-01-19T17:12:20;1.30;99.90
52867;DHT22;38739;53.324;6.862;2023-01-19T17:14:46;1.20;99.90
52867;DHT22;38739;53.324;6.862;2023-01-19T17:17:13;1.20;99.90
52867;DHT22;38739;53.324;6.862;2023-01-19T17:19:38;1.20;99.90
52867;DHT22;38739;53.324;6.862;2023-01-19T17:22:05;1.20;99.90
52867;DHT22;38739;53.324;6.862;2023-01-19T17:24:31;1.20;99.90
52867;DHT22;38739;53.324;6.862;2023-01-19T17:26:57;1.20;99.90
52867;DHT22;38739;53.324;6.862;2023-01-19T17:29:23;1.20;99.90
52867;DHT22;38739;53.324;6.862;2023-01-19T17:31:49;1.20;99.90